createdAt,value
2023-05-10T00:02:25.677Z,7.47
2023-05-10T00:04:53.428Z,7.40
2023-05-10T00:07:20.692Z,7.46
2023-05-10T00:09:47.949Z,7.55
2023-05-10T00:12:15.253Z,7.46
2023-05-10T00:14:42.558Z,7.45
2023-05-10T00:17:09.863Z,7.38
2023-05-10T00:19:37.146Z,7.47
2023-05-10T00:22:04.436Z,7.42
2023-05-10T00:24:31.816Z,7.18
2023-05-10T00:26:59.135Z,7.18
2023-05-10T00:29:26.429Z,7.14
2023-05-10T00:31:54.251Z,6.99
2023-05-10T00:34:21.895Z,6.93
2023-05-10T00:36:49.141Z,6.84
2023-05-10T00:39:16.453Z,6.81
2023-05-10T00:41:43.707Z,6.81
2023-05-10T00:44:11.512Z,6.81
2023-05-10T00:46:38.819Z,7.09
2023-05-10T00:49:06.117Z,6.98
2023-05-10T00:51:33.437Z,6.74
2023-05-10T00:54:00.684Z,6.83
2023-05-10T00:56:29.454Z,6.84
2023-05-10T00:58:56.867Z,6.81
2023-05-10T01:01:27.186Z,6.70
2023-05-10T01:03:58.054Z,6.73
2023-05-10T01:06:25.345Z,6.69
2023-05-10T01:08:53.082Z,6.81
2023-05-10T01:11:20.365Z,6.69
2023-05-10T01:13:50.934Z,6.56
2023-05-10T01:16:18.276Z,6.49
2023-05-10T01:18:45.609Z,6.39
2023-05-10T01:21:23.637Z,6.56
2023-05-10T01:24:09.126Z,6.38
2023-05-10T01:26:42.266Z,6.51
2023-05-10T01:29:34.661Z,6.63
2023-05-10T01:32:10.935Z,6.62
2023-05-10T01:34:54.117Z,6.56
2023-05-10T01:37:23.175Z,6.41
2023-05-10T01:40:14.380Z,6.02
2023-05-10T01:42:47.562Z,6.15
2023-05-10T01:45:33.231Z,6.08
2023-05-10T01:48:08.477Z,6.07
2023-05-10T01:50:36.933Z,6.08
2023-05-10T01:53:04.269Z,6.03
2023-05-10T01:55:33.511Z,6.10
2023-05-10T01:58:08.989Z,6.13
2023-05-10T02:00:36.656Z,6.11
2023-05-10T02:03:06.484Z,5.98
2023-05-10T02:05:34.382Z,6.15
2023-05-10T02:08:02.384Z,6.02
2023-05-10T02:10:30.771Z,5.86
2023-05-10T02:12:59.658Z,5.75
2023-05-10T02:15:27.251Z,5.82
2023-05-10T02:17:56.494Z,5.72
2023-05-10T02:20:24.476Z,5.82
2023-05-10T02:22:52.752Z,5.80
2023-05-10T02:25:21.153Z,5.78
2023-05-10T02:27:50.916Z,5.83
2023-05-10T02:30:18.353Z,5.82
2023-05-10T02:32:46.107Z,5.82
2023-05-10T02:35:13.403Z,5.70
2023-05-10T02:37:41.583Z,5.77
2023-05-10T02:40:12.111Z,5.76
2023-05-10T02:42:40.059Z,5.70
2023-05-10T02:45:12.190Z,5.59
2023-05-10T02:47:39.656Z,5.63
2023-05-10T02:50:07.570Z,5.65
2023-05-10T02:52:43.740Z,5.58
2023-05-10T02:55:12.871Z,5.51
2023-05-10T02:57:43.311Z,5.56
2023-05-10T03:00:12.603Z,5.64
2023-05-10T03:02:39.918Z,5.75
2023-05-10T03:05:07.513Z,5.93
2023-05-10T03:07:34.975Z,5.94
2023-05-10T03:10:02.373Z,6.04
2023-05-10T03:12:33.267Z,6.17
2023-05-10T03:15:21.828Z,6.14
2023-05-10T03:17:56.777Z,6.17
2023-05-10T03:20:30.672Z,6.20
2023-05-10T03:23:04.114Z,6.10
2023-05-10T03:25:32.171Z,6.06
2023-05-10T03:27:59.419Z,6.15
2023-05-10T03:30:27.071Z,6.18
2023-05-10T03:32:54.406Z,6.12
2023-05-10T03:35:21.901Z,6.25
2023-05-10T03:37:49.177Z,6.35
2023-05-10T03:40:17.167Z,6.33
2023-05-10T03:42:45.016Z,6.30
2023-05-10T03:45:12.508Z,6.27
2023-05-10T03:47:39.885Z,6.30
2023-05-10T03:50:07.936Z,6.26
2023-05-10T03:52:35.235Z,6.33
2023-05-10T03:55:04.701Z,6.38
2023-05-10T03:57:32.070Z,6.44
2023-05-10T03:59:59.322Z,6.50
2023-05-10T04:02:26.773Z,6.52
2023-05-10T04:04:54.150Z,6.43
2023-05-10T04:07:21.559Z,6.39
2023-05-10T04:09:49.334Z,6.46
2023-05-10T04:12:16.694Z,6.51
2023-05-10T04:14:44.034Z,6.68
2023-05-10T04:17:11.964Z,6.84
2023-05-10T04:19:39.531Z,7.02
2023-05-10T04:22:06.909Z,7.28
2023-05-10T04:24:34.227Z,7.36
2023-05-10T04:27:01.626Z,7.52
2023-05-10T04:29:28.909Z,7.59
2023-05-10T04:31:57.660Z,7.81
2023-05-10T04:34:26.530Z,7.92
2023-05-10T04:36:53.887Z,8.18
2023-05-10T04:39:21.216Z,8.47
2023-05-10T04:41:48.510Z,8.48
2023-05-10T04:44:15.860Z,8.59
2023-05-10T04:46:43.287Z,8.80
2023-05-10T04:49:10.647Z,8.90
2023-05-10T04:51:37.905Z,8.80
2023-05-10T04:54:06.754Z,8.86
2023-05-10T04:56:34.594Z,8.82
2023-05-10T04:59:02.219Z,8.89
2023-05-10T05:01:30.829Z,8.86
2023-05-10T05:03:58.263Z,8.83
2023-05-10T05:06:26.169Z,8.98
2023-05-10T05:08:53.521Z,9.11
2023-05-10T05:11:21.997Z,9.15
2023-05-10T05:13:49.244Z,9.27
2023-05-10T05:16:16.668Z,9.21
2023-05-10T05:18:44.082Z,9.46
2023-05-10T05:21:20.524Z,9.37
2023-05-10T05:23:48.220Z,9.61
2023-05-10T05:26:16.052Z,9.62
2023-05-10T05:28:43.420Z,9.72
2023-05-10T05:31:11.035Z,9.84
2023-05-10T05:33:38.448Z,9.92
2023-05-10T05:36:06.397Z,9.87
2023-05-10T05:38:33.765Z,9.91
2023-05-10T05:41:01.122Z,10.14
2023-05-10T05:43:28.439Z,10.29
2023-05-10T05:45:56.249Z,10.35
2023-05-10T05:48:23.637Z,10.43
2023-05-10T05:50:51.118Z,10.46
2023-05-10T05:53:18.406Z,10.45
2023-05-10T05:55:53.815Z,10.57
2023-05-10T05:58:21.881Z,10.54
2023-05-10T06:00:49.500Z,10.73
2023-05-10T06:03:16.938Z,10.77
2023-05-10T06:05:44.506Z,10.98
2023-05-10T06:08:11.792Z,10.99
2023-05-10T06:10:39.085Z,11.16
2023-05-10T06:13:06.397Z,11.07
2023-05-10T06:15:33.793Z,11.08
2023-05-10T06:18:01.312Z,11.18
2023-05-10T06:20:28.634Z,11.13
2023-05-10T06:22:55.980Z,11.30
2023-05-10T06:25:23.351Z,11.31
2023-05-10T06:27:53.676Z,11.45
2023-05-10T06:30:24.038Z,11.68
2023-05-10T06:32:51.375Z,11.71
2023-05-10T06:35:18.952Z,11.68
2023-05-10T06:37:47.757Z,11.70
2023-05-10T06:40:15.447Z,11.90
2023-05-10T06:42:42.888Z,11.76
2023-05-10T06:45:10.935Z,11.94
2023-05-10T06:47:39.254Z,11.87
2023-05-10T06:50:08.166Z,11.74
2023-05-10T06:52:35.526Z,12.16
2023-05-10T06:55:04.524Z,12.16
2023-05-10T06:57:32.394Z,12.47
2023-05-10T07:00:00.069Z,12.32
2023-05-10T07:02:27.559Z,12.55
2023-05-10T07:04:55.167Z,12.52
2023-05-10T07:07:25.585Z,12.55
2023-05-10T07:09:52.832Z,12.85
2023-05-10T07:12:20.202Z,13.28
2023-05-10T07:14:47.711Z,13.34
2023-05-10T07:17:14.969Z,13.58
2023-05-10T07:19:42.359Z,13.85
2023-05-10T07:22:09.685Z,13.74
2023-05-10T07:24:37.377Z,13.58
2023-05-10T07:27:05.272Z,13.82
2023-05-10T07:29:32.643Z,13.76
2023-05-10T07:32:00.525Z,13.53
2023-05-10T07:34:27.939Z,13.45
2023-05-10T07:36:55.386Z,13.27
2023-05-10T07:39:27.820Z,13.32
2023-05-10T07:41:56.089Z,13.15
2023-05-10T07:44:23.648Z,13.09
2023-05-10T07:46:51.010Z,13.15
2023-05-10T07:49:18.355Z,13.56
2023-05-10T07:51:45.675Z,13.73
2023-05-10T07:54:13.785Z,14.00
2023-05-10T07:56:45.787Z,14.09
2023-05-10T07:59:16.029Z,14.14
2023-05-10T08:01:43.387Z,14.13
2023-05-10T08:04:10.937Z,14.41
2023-05-10T08:06:38.300Z,14.38
2023-05-10T08:09:05.863Z,14.60
2023-05-10T08:11:34.847Z,14.21
2023-05-10T08:14:02.369Z,14.61
2023-05-10T08:16:30.058Z,14.90
2023-05-10T08:18:57.689Z,14.86
2023-05-10T08:21:26.700Z,15.10
2023-05-10T08:23:54.007Z,15.02
2023-05-10T08:26:22.473Z,15.03
2023-05-10T08:28:49.732Z,14.89
2023-05-10T08:31:17.159Z,15.15
2023-05-10T08:33:44.831Z,14.90
2023-05-10T08:36:15.216Z,15.10
2023-05-10T08:38:42.617Z,15.13
2023-05-10T08:41:10.112Z,15.38
2023-05-10T08:43:38.898Z,15.61
2023-05-10T08:46:06.394Z,15.75
2023-05-10T08:48:34.154Z,15.59
2023-05-10T08:51:01.867Z,15.56
2023-05-10T08:53:29.953Z,15.23
2023-05-10T08:55:57.192Z,15.34
2023-05-10T08:58:24.481Z,15.29
2023-05-10T09:00:54.513Z,15.04
2023-05-10T09:03:21.917Z,15.02
2023-05-10T09:05:49.885Z,14.98
2023-05-10T09:08:20.866Z,15.54
2023-05-10T09:10:48.587Z,15.91
2023-05-10T09:13:16.578Z,16.28
2023-05-10T09:15:46.380Z,16.35
2023-05-10T09:18:13.847Z,16.41
2023-05-10T09:20:41.589Z,16.48
2023-05-10T09:23:08.997Z,16.12
2023-05-10T09:25:36.624Z,16.54
2023-05-10T09:28:04.052Z,16.39
2023-05-10T09:30:31.692Z,16.88
2023-05-10T09:32:59.612Z,16.89
2023-05-10T09:35:31.636Z,17.28
2023-05-10T09:38:04.522Z,16.78
2023-05-10T09:40:31.914Z,16.81
2023-05-10T09:42:59.150Z,16.92
2023-05-10T09:45:28.523Z,17.23
2023-05-10T09:47:56.524Z,17.41
2023-05-10T09:50:24.188Z,17.37
2023-05-10T09:52:59.422Z,16.72
2023-05-10T09:55:40.074Z,16.49
2023-05-10T09:58:11.251Z,16.71
2023-05-10T10:00:41.899Z,17.20
2023-05-10T10:03:16.710Z,17.83
2023-05-10T10:05:44.932Z,17.81
2023-05-10T10:08:13.098Z,17.83
2023-05-10T10:10:41.616Z,17.95
2023-05-10T10:13:09.194Z,17.69
2023-05-10T10:15:36.770Z,17.68
2023-05-10T10:18:07.311Z,18.29
2023-05-10T10:20:35.138Z,18.23
2023-05-10T10:23:03.254Z,18.20
2023-05-10T10:25:30.635Z,18.73
2023-05-10T10:28:06.363Z,18.70
2023-05-10T10:30:44.803Z,18.38
2023-05-10T10:33:32.232Z,17.95
2023-05-10T10:36:00.259Z,18.37
2023-05-10T10:38:48.731Z,18.64
2023-05-10T10:41:29.252Z,18.60
2023-05-10T10:44:27.827Z,18.87
2023-05-10T10:47:12.318Z,18.99
2023-05-10T10:49:42.614Z,19.19
2023-05-10T10:52:23.741Z,18.84
2023-05-10T10:55:12.085Z,18.98
2023-05-10T10:57:42.398Z,18.94
2023-05-10T11:00:26.116Z,19.43
2023-05-10T11:03:15.776Z,19.20
2023-05-10T11:05:47.384Z,19.14
2023-05-10T11:08:19.725Z,19.09
2023-05-10T11:10:55.167Z,19.48
2023-05-10T11:13:41.821Z,19.43
2023-05-10T11:16:24.611Z,19.17
2023-05-10T11:19:04.743Z,19.84
2023-05-10T11:21:32.539Z,20.10
2023-05-10T11:24:00.510Z,19.76
2023-05-10T11:26:32.825Z,20.06
2023-05-10T11:29:01.737Z,19.64
2023-05-10T11:31:29.218Z,18.68
2023-05-10T11:33:57.865Z,19.00
2023-05-10T11:36:26.987Z,19.75
2023-05-10T11:38:54.473Z,19.03
2023-05-10T11:41:25.656Z,19.31
2023-05-10T11:43:54.070Z,18.99
2023-05-10T11:46:22.749Z,19.46
2023-05-10T11:48:54.085Z,19.75
2023-05-10T11:51:25.100Z,19.62
2023-05-10T11:53:54.726Z,19.48
2023-05-10T11:56:22.020Z,19.23
2023-05-10T11:58:56.859Z,19.38
2023-05-10T12:01:25.259Z,19.79
2023-05-10T12:03:53.197Z,19.23
2023-05-10T12:06:20.846Z,19.37
2023-05-10T12:08:48.580Z,19.33
2023-05-10T12:11:18.713Z,19.18
2023-05-10T12:13:49.104Z,19.20
2023-05-10T12:16:20.706Z,19.21
2023-05-10T12:18:52.093Z,19.49
2023-05-10T12:21:20.484Z,19.76
2023-05-10T12:23:49.143Z,20.04
2023-05-10T12:26:16.446Z,19.70
2023-05-10T12:28:46.390Z,19.41
2023-05-10T12:31:13.662Z,19.71
2023-05-10T12:33:44.634Z,19.41
2023-05-10T12:36:12.874Z,19.46
2023-05-10T12:38:44.012Z,19.81
2023-05-10T12:41:12.351Z,19.51
2023-05-10T12:43:39.985Z,19.46
2023-05-10T12:46:11.345Z,19.39
2023-05-10T12:48:39.105Z,19.27
2023-05-10T12:51:06.794Z,19.22
2023-05-10T12:53:34.068Z,19.25
2023-05-10T12:56:01.352Z,19.47
2023-05-10T12:58:35.665Z,19.62
2023-05-10T13:01:03.949Z,19.79
2023-05-10T13:03:31.552Z,19.54
2023-05-10T13:05:58.820Z,19.43
2023-05-10T13:08:26.264Z,19.57
2023-05-10T13:10:53.902Z,19.92
2023-05-10T13:13:21.273Z,19.78
2023-05-10T13:15:48.577Z,19.54
2023-05-10T13:18:15.956Z,19.45
2023-05-10T13:20:45.249Z,19.67
2023-05-10T13:23:12.641Z,19.81
2023-05-10T13:25:40.253Z,19.91
2023-05-10T13:28:07.588Z,20.10
2023-05-10T13:30:35.122Z,20.25
2023-05-10T13:33:02.555Z,20.19
2023-05-10T13:35:29.888Z,20.39
2023-05-10T13:37:58.734Z,20.40
2023-05-10T13:40:25.969Z,20.55
2023-05-10T13:42:54.238Z,20.92
2023-05-10T13:45:21.932Z,20.76
2023-05-10T13:47:49.328Z,20.82
2023-05-10T13:50:16.869Z,21.26
2023-05-10T13:52:44.304Z,21.47
2023-05-10T13:55:13.535Z,20.83
2023-05-10T13:57:40.942Z,21.14
2023-05-10T14:00:08.921Z,21.04
2023-05-10T14:02:37.224Z,20.60
2023-05-10T14:05:05.163Z,20.67
2023-05-10T14:07:32.541Z,20.21
2023-05-10T14:09:59.852Z,19.63
2023-05-10T14:12:27.456Z,19.48
2023-05-10T14:14:54.874Z,19.44
2023-05-10T14:17:23.225Z,19.77
2023-05-10T14:19:50.617Z,19.63
2023-05-10T14:22:18.082Z,19.78
2023-05-10T14:24:47.918Z,19.43
2023-05-10T14:27:15.740Z,19.79
2023-05-10T14:29:43.182Z,19.64
2023-05-10T14:32:10.962Z,19.79
2023-05-10T14:34:38.432Z,19.90
2023-05-10T14:37:05.898Z,20.06
2023-05-10T14:39:34.226Z,19.97
2023-05-10T14:42:01.661Z,20.60
2023-05-10T14:44:29.396Z,21.25
2023-05-10T14:46:57.486Z,22.54
2023-05-10T14:49:26.777Z,21.92
2023-05-10T14:52:03.058Z,21.75
2023-05-10T14:54:31.670Z,21.63
2023-05-10T14:57:01.322Z,22.00
2023-05-10T14:59:28.734Z,21.99
2023-05-10T15:01:56.688Z,23.51
2023-05-10T15:04:25.105Z,24.47
2023-05-10T15:07:00.117Z,24.75
2023-05-10T15:09:28.829Z,26.01
2023-05-10T15:11:56.513Z,25.80
2023-05-10T15:14:24.026Z,26.29
2023-05-10T15:16:51.359Z,26.00
2023-05-10T15:19:18.691Z,25.80
2023-05-10T15:21:46.420Z,25.72
2023-05-10T15:24:13.718Z,25.86
2023-05-10T15:26:41.467Z,26.77
2023-05-10T15:29:08.915Z,26.47
2023-05-10T15:31:36.934Z,26.62
2023-05-10T15:34:04.437Z,25.32
2023-05-10T15:36:32.802Z,26.18
2023-05-10T15:39:00.202Z,25.67
2023-05-10T15:41:27.847Z,25.17
2023-05-10T15:43:55.183Z,25.79
2023-05-10T15:46:22.819Z,25.88
2023-05-10T15:48:50.317Z,25.27
2023-05-10T15:51:18.036Z,26.06
2023-05-10T15:54:00.350Z,25.91
2023-05-10T15:56:33.869Z,25.70
2023-05-10T15:59:01.445Z,25.94
2023-05-10T16:01:29.213Z,26.33
2023-05-10T16:03:56.887Z,25.79
2023-05-10T16:06:24.278Z,25.59
2023-05-10T16:08:52.911Z,25.01
2023-05-10T16:11:22.091Z,25.44
2023-05-10T16:13:52.961Z,24.78
2023-05-10T16:16:37.994Z,22.66
2023-05-10T16:19:08.760Z,21.05
2023-05-10T16:21:36.517Z,19.89
2023-05-10T16:24:04.016Z,19.59
2023-05-10T16:26:31.593Z,19.39
2023-05-10T16:28:59.060Z,19.00
2023-05-10T16:31:26.539Z,18.70
2023-05-10T16:33:53.983Z,18.76
2023-05-10T16:36:21.407Z,18.51
2023-05-10T16:38:48.765Z,18.35
2023-05-10T16:41:16.653Z,18.28
2023-05-10T16:43:44.089Z,18.17
2023-05-10T16:46:12.007Z,18.17
2023-05-10T16:48:39.543Z,18.11
2023-05-10T16:51:07.275Z,18.07
2023-05-10T16:53:34.735Z,17.97
2023-05-10T16:56:02.211Z,17.87
2023-05-10T16:58:29.669Z,17.83
2023-05-10T17:00:57.064Z,17.93
2023-05-10T17:03:24.580Z,17.83
2023-05-10T17:05:52.077Z,17.68
2023-05-10T17:08:19.442Z,17.59
2023-05-10T17:10:46.835Z,17.70
2023-05-10T17:13:14.197Z,17.67
2023-05-10T17:15:41.605Z,17.43
2023-05-10T17:18:10.332Z,17.36
2023-05-10T17:20:37.739Z,17.37
2023-05-10T17:23:05.196Z,17.42
2023-05-10T17:25:32.646Z,17.42
2023-05-10T17:28:00.070Z,17.24
2023-05-10T17:30:28.847Z,17.29
2023-05-10T17:32:56.387Z,16.95
2023-05-10T17:35:24.141Z,16.59
2023-05-10T17:37:51.889Z,16.36
2023-05-10T17:40:19.504Z,16.12
2023-05-10T17:42:49.346Z,16.33
2023-05-10T17:45:17.651Z,16.08
2023-05-10T17:47:45.265Z,16.18
2023-05-10T17:50:12.787Z,15.71
2023-05-10T17:52:40.194Z,15.56
2023-05-10T17:55:08.653Z,15.51
2023-05-10T17:57:38.197Z,15.36
2023-05-10T18:00:08.617Z,15.13
2023-05-10T18:02:36.822Z,15.07
2023-05-10T18:05:04.863Z,15.08
2023-05-10T18:07:32.476Z,14.65
2023-05-10T18:10:01.141Z,14.73
2023-05-10T18:12:28.541Z,14.55
2023-05-10T18:14:56.029Z,14.49
2023-05-10T18:17:23.422Z,14.64
2023-05-10T18:19:50.973Z,14.63
2023-05-10T18:22:18.486Z,14.42
2023-05-10T18:24:47.118Z,14.30
2023-05-10T18:27:14.583Z,14.47
2023-05-10T18:29:42.402Z,14.31
2023-05-10T18:32:09.795Z,14.19
2023-05-10T18:34:37.233Z,14.09
2023-05-10T18:37:07.444Z,14.08
2023-05-10T18:39:36.843Z,14.26
2023-05-10T18:42:07.721Z,14.03
2023-05-10T18:44:35.161Z,13.89
2023-05-10T18:47:02.462Z,13.93
2023-05-10T18:49:29.932Z,13.67
2023-05-10T18:51:57.296Z,13.53
2023-05-10T18:54:24.823Z,13.78
2023-05-10T18:56:52.382Z,13.64
2023-05-10T18:59:19.752Z,13.55
2023-05-10T19:01:48.374Z,13.39
2023-05-10T19:04:17.554Z,13.23
2023-05-10T19:06:45.036Z,12.98
2023-05-10T19:09:12.462Z,12.89
2023-05-10T19:11:40.851Z,12.71
2023-05-10T19:14:08.204Z,12.49
2023-05-10T19:16:35.690Z,12.47
2023-05-10T19:19:03.262Z,12.72
2023-05-10T19:21:33.121Z,12.55
2023-05-10T19:24:01.499Z,12.36
2023-05-10T19:26:28.896Z,12.46
2023-05-10T19:28:57.658Z,12.38
2023-05-10T19:31:25.144Z,12.22
2023-05-10T19:33:53.742Z,12.20
2023-05-10T19:36:21.298Z,12.05
2023-05-10T19:38:49.002Z,11.77
2023-05-10T19:41:16.516Z,11.95
2023-05-10T19:43:43.971Z,11.85
2023-05-10T19:46:12.739Z,11.68
2023-05-10T19:48:40.922Z,11.70
2023-05-10T19:51:10.246Z,11.83
2023-05-10T19:53:37.986Z,11.59
2023-05-10T19:56:06.539Z,11.34
2023-05-10T19:58:34.023Z,11.31
2023-05-10T20:01:01.573Z,11.24
2023-05-10T20:03:29.247Z,11.35
2023-05-10T20:05:56.662Z,11.12
2023-05-10T20:08:24.501Z,11.08
2023-05-10T20:10:51.870Z,11.29
2023-05-10T20:13:19.374Z,11.37
2023-05-10T20:15:46.838Z,11.22
2023-05-10T20:18:14.185Z,11.15
2023-05-10T20:20:41.549Z,11.09
2023-05-10T20:23:08.865Z,11.20
2023-05-10T20:25:36.266Z,11.12
2023-05-10T20:28:03.933Z,11.05
2023-05-10T20:30:31.733Z,10.73
2023-05-10T20:32:59.253Z,10.77
2023-05-10T20:35:26.826Z,10.79
2023-05-10T20:37:54.209Z,10.43
2023-05-10T20:40:21.673Z,10.57
2023-05-10T20:42:49.775Z,10.69
2023-05-10T20:45:17.118Z,10.51
2023-05-10T20:47:44.601Z,10.60
2023-05-10T20:50:12.075Z,10.59
2023-05-10T20:52:39.432Z,10.40
2023-05-10T20:55:07.524Z,10.52
2023-05-10T20:57:34.932Z,10.38
2023-05-10T21:00:02.564Z,10.19
2023-05-10T21:02:29.927Z,10.26
2023-05-10T21:04:58.238Z,10.14
2023-05-10T21:07:25.689Z,10.19
2023-05-10T21:09:53.006Z,10.26
2023-05-10T21:12:20.335Z,10.15
2023-05-10T21:14:47.852Z,10.12
2023-05-10T21:17:15.264Z,10.02
2023-05-10T21:19:42.933Z,10.01
2023-05-10T21:22:10.327Z,9.98
2023-05-10T21:24:37.638Z,9.64
2023-05-10T21:27:04.991Z,9.68
2023-05-10T21:29:32.298Z,9.61
2023-05-10T21:31:59.652Z,9.51
2023-05-10T21:34:26.952Z,9.65
2023-05-10T21:36:54.511Z,9.72
2023-05-10T21:39:21.920Z,9.92
2023-05-10T21:41:49.200Z,9.66
2023-05-10T21:44:16.504Z,9.70
2023-05-10T21:46:44.335Z,9.71
2023-05-10T21:49:11.610Z,9.55
2023-05-10T21:51:38.939Z,9.34
2023-05-10T21:54:06.299Z,9.42
2023-05-10T21:56:33.663Z,9.46
2023-05-10T21:59:00.954Z,9.21
2023-05-10T22:01:28.294Z,9.40
2023-05-10T22:03:55.663Z,9.18
2023-05-10T22:06:22.955Z,9.21
2023-05-10T22:08:50.295Z,9.05
2023-05-10T22:11:17.617Z,8.84
2023-05-10T22:13:44.937Z,8.99
2023-05-10T22:16:12.277Z,8.71
2023-05-10T22:18:39.668Z,8.76
2023-05-10T22:21:08.829Z,8.98
2023-05-10T22:23:36.278Z,8.80
2023-05-10T22:26:03.628Z,8.88
2023-05-10T22:28:30.964Z,8.75
2023-05-10T22:30:58.360Z,9.07
2023-05-10T22:33:25.664Z,8.83
2023-05-10T22:35:53.026Z,8.49
2023-05-10T22:38:20.374Z,8.73
2023-05-10T22:40:47.680Z,8.56
2023-05-10T22:43:16.338Z,8.43
2023-05-10T22:45:43.773Z,8.21
2023-05-10T22:48:11.253Z,8.56
2023-05-10T22:50:38.679Z,8.43
2023-05-10T22:53:06.691Z,8.55
2023-05-10T22:55:34.018Z,8.59
2023-05-10T22:58:01.496Z,8.61
2023-05-10T23:00:28.782Z,8.39
2023-05-10T23:02:56.409Z,8.44
2023-05-10T23:05:23.834Z,8.46
2023-05-10T23:07:53.547Z,8.37
2023-05-10T23:10:20.939Z,8.26
2023-05-10T23:12:48.400Z,8.30
2023-05-10T23:15:15.835Z,8.03
2023-05-10T23:17:43.286Z,8.19
2023-05-10T23:20:11.328Z,8.14
2023-05-10T23:22:38.756Z,7.99
2023-05-10T23:25:06.591Z,8.00
2023-05-10T23:27:33.943Z,8.06
2023-05-10T23:30:01.357Z,8.00
2023-05-10T23:32:28.742Z,7.77
2023-05-10T23:34:56.068Z,7.88
2023-05-10T23:37:23.361Z,7.68
2023-05-10T23:39:50.728Z,7.82
2023-05-10T23:42:18.088Z,7.76
2023-05-10T23:44:45.483Z,7.71
2023-05-10T23:47:13.004Z,7.44
2023-05-10T23:49:42.221Z,7.86
2023-05-10T23:52:09.565Z,7.78
2023-05-10T23:54:36.958Z,7.80
2023-05-10T23:57:04.412Z,7.77
2023-05-10T23:59:31.886Z,7.80
